sensor_id;sensor_type;location;lat;lon;timestamp;temperature;humidity
10316;DHT22;5203;48.976;8.306;2022-11-02T00:03:41;12.30;95.70
10316;DHT22;5203;48.976;8.306;2022-11-02T00:06:07;12.30;96.20
10316;DHT22;5203;48.976;8.306;2022-11-02T00:08:32;12.30;96.30
10316;DHT22;5203;48.976;8.306;2022-11-02T00:10:58;12.30;95.60
10316;DHT22;5203;48.976;8.306;2022-11-02T00:13:24;12.30;96.10
10316;DHT22;5203;48.976;8.306;2022-11-02T00:15:49;12.30;95.40
10316;DHT22;5203;48.976;8.306;2022-11-02T00:18:15;12.30;94.90
10316;DHT22;5203;48.976;8.306;2022-11-02T00:20:42;12.30;95.30
10316;DHT22;5203;48.976;8.306;2022-11-02T00:23:08;12.30;95.40
10316;DHT22;5203;48.976;8.306;2022-11-02T00:25:38;12.30;95.70
10316;DHT22;5203;48.976;8.306;2022-11-02T00:28:04;12.20;96.10
10316;DHT22;5203;48.976;8.306;2022-11-02T00:30:30;12.30;97.60
10316;DHT22;5203;48.976;8.306;2022-11-02T00:32:56;12.30;98.50
10316;DHT22;5203;48.976;8.306;2022-11-02T00:35:21;12.20;98.00
10316;DHT22;5203;48.976;8.306;2022-11-02T00:37:47;12.10;98.20
10316;DHT22;5203;48.976;8.306;2022-11-02T00:40:12;12.10;99.50
10316;DHT22;5203;48.976;8.306;2022-11-02T00:42:38;12.10;99.90
10316;DHT22;5203;48.976;8.306;2022-11-02T00:45:05;12.20;99.90
10316;DHT22;5203;48.976;8.306;2022-11-02T00:47:31;12.10;99.90
10316;DHT22;5203;48.976;8.306;2022-11-02T00:49:56;12.00;99.90
10316;DHT22;5203;48.976;8.306;2022-11-02T00:52:22;11.90;99.90
10316;DHT22;5203;48.976;8.306;2022-11-02T00:54:48;12.00;99.90
10316;DHT22;5203;48.976;8.306;2022-11-02T00:57:19;12.00;99.90
10316;DHT22;5203;48.976;8.306;2022-11-02T00:59:49;12.10;99.90
10316;DHT22;5203;48.976;8.306;2022-11-02T01:02:15;12.10;99.20
10316;DHT22;5203;48.976;8.306;2022-11-02T01:04:44;12.00;99.30
10316;DHT22;5203;48.976;8.306;2022-11-02T01:07:12;12.00;99.80
10316;DHT22;5203;48.976;8.306;2022-11-02T01:09:40;12.10;99.90
10316;DHT22;5203;48.976;8.306;2022-11-02T01:12:09;12.10;99.50
10316;DHT22;5203;48.976;8.306;2022-11-02T01:14:41;12.10;98.60
10316;DHT22;5203;48.976;8.306;2022-11-02T01:17:08;12.10;97.00
10316;DHT22;5203;48.976;8.306;2022-11-02T01:19:33;12.10;98.50
10316;DHT22;5203;48.976;8.306;2022-11-02T01:22:04;12.10;99.00
10316;DHT22;5203;48.976;8.306;2022-11-02T01:24:44;12.10;99.50
10316;DHT22;5203;48.976;8.306;2022-11-02T01:27:12;12.00;99.90
10316;DHT22;5203;48.976;8.306;2022-11-02T01:29:41;12.10;99.80
10316;DHT22;5203;48.976;8.306;2022-11-02T01:35:24;12.00;99.90
10316;DHT22;5203;48.976;8.306;2022-11-02T01:37:50;11.90;99.90
10316;DHT22;5203;48.976;8.306;2022-11-02T01:40:22;12.00;99.90
10316;DHT22;5203;48.976;8.306;2022-11-02T01:42:54;12.00;98.20
10316;DHT22;5203;48.976;8.306;2022-11-02T01:45:23;12.00;98.90
10316;DHT22;5203;48.976;8.306;2022-11-02T01:47:49;12.10;99.00
10316;DHT22;5203;48.976;8.306;2022-11-02T01:50:21;12.10;99.00
10316;DHT22;5203;48.976;8.306;2022-11-02T01:52:48;12.10;98.90
10316;DHT22;5203;48.976;8.306;2022-11-02T01:55:17;12.10;98.40
10316;DHT22;5203;48.976;8.306;2022-11-02T01:57:48;12.10;98.80
10316;DHT22;5203;48.976;8.306;2022-11-02T02:00:17;12.20;98.00
10316;DHT22;5203;48.976;8.306;2022-11-02T02:02:51;12.10;97.30
10316;DHT22;5203;48.976;8.306;2022-11-02T02:05:21;12.10;98.40
10316;DHT22;5203;48.976;8.306;2022-11-02T02:07:48;12.10;98.50
10316;DHT22;5203;48.976;8.306;2022-11-02T02:10:15;12.10;98.80
10316;DHT22;5203;48.976;8.306;2022-11-02T02:12:42;12.10;99.60
10316;DHT22;5203;48.976;8.306;2022-11-02T02:15:09;12.20;98.20
10316;DHT22;5203;48.976;8.306;2022-11-02T02:23:21;12.10;97.60
10316;DHT22;5203;48.976;8.306;2022-11-02T02:33:33;12.00;99.20
10316;DHT22;5203;48.976;8.306;2022-11-02T02:36:11;12.10;99.90
10316;DHT22;5203;48.976;8.306;2022-11-02T02:38:46;12.10;99.90
10316;DHT22;5203;48.976;8.306;2022-11-02T02:41:39;12.10;99.90
10316;DHT22;5203;48.976;8.306;2022-11-02T02:44:13;12.20;99.00
10316;DHT22;5203;48.976;8.306;2022-11-02T02:46:51;12.20;99.20
10316;DHT22;5203;48.976;8.306;2022-11-02T02:49:21;12.20;98.40
10316;DHT22;5203;48.976;8.306;2022-11-02T02:51:47;12.20;98.90
10316;DHT22;5203;48.976;8.306;2022-11-02T02:54:24;12.30;99.50
10316;DHT22;5203;48.976;8.306;2022-11-02T02:56:56;12.30;98.90
10316;DHT22;5203;48.976;8.306;2022-11-02T02:59:38;12.20;98.80
10316;DHT22;5203;48.976;8.306;2022-11-02T03:02:07;12.30;99.00
10316;DHT22;5203;48.976;8.306;2022-11-02T03:04:35;12.30;98.30
10316;DHT22;5203;48.976;8.306;2022-11-02T03:07:01;12.20;98.50
10316;DHT22;5203;48.976;8.306;2022-11-02T03:09:43;12.10;98.40
10316;DHT22;5203;48.976;8.306;2022-11-02T03:15:24;12.00;99.10
10316;DHT22;5203;48.976;8.306;2022-11-02T03:18:16;12.00;99.30
10316;DHT22;5203;48.976;8.306;2022-11-02T03:21:19;12.10;99.50
10316;DHT22;5203;48.976;8.306;2022-11-02T03:24:04;12.00;99.90
10316;DHT22;5203;48.976;8.306;2022-11-02T03:29:31;11.90;99.90
10316;DHT22;5203;48.976;8.306;2022-11-02T03:32:14;11.90;99.90
10316;DHT22;5203;48.976;8.306;2022-11-02T03:34:48;11.90;99.90
10316;DHT22;5203;48.976;8.306;2022-11-02T03:42:29;11.80;99.90
10316;DHT22;5203;48.976;8.306;2022-11-02T03:45:01;11.80;99.90
10316;DHT22;5203;48.976;8.306;2022-11-02T03:47:29;11.80;99.90
10316;DHT22;5203;48.976;8.306;2022-11-02T03:49:56;11.70;99.90
10316;DHT22;5203;48.976;8.306;2022-11-02T03:52:27;11.60;99.90
10316;DHT22;5203;48.976;8.306;2022-11-02T03:55:52;11.60;99.90
10316;DHT22;5203;48.976;8.306;2022-11-02T03:57:53;11.60;99.90
10316;DHT22;5203;48.976;8.306;2022-11-02T04:00:21;11.60;99.90
10316;DHT22;5203;48.976;8.306;2022-11-02T04:02:51;11.70;99.90
10316;DHT22;5203;48.976;8.306;2022-11-02T04:05:18;11.70;99.90
10316;DHT22;5203;48.976;8.306;2022-11-02T04:07:47;11.70;99.90
10316;DHT22;5203;48.976;8.306;2022-11-02T04:10:33;11.80;99.90
10316;DHT22;5203;48.976;8.306;2022-11-02T04:12:59;11.80;99.90
10316;DHT22;5203;48.976;8.306;2022-11-02T04:15:43;11.70;99.90
10316;DHT22;5203;48.976;8.306;2022-11-02T04:18:09;11.60;99.90
10316;DHT22;5203;48.976;8.306;2022-11-02T04:20:53;11.80;99.90
10316;DHT22;5203;48.976;8.306;2022-11-02T04:23:19;11.80;99.90
10316;DHT22;5203;48.976;8.306;2022-11-02T04:26:04;11.80;99.90
10316;DHT22;5203;48.976;8.306;2022-11-02T04:28:30;11.80;99.90
10316;DHT22;5203;48.976;8.306;2022-11-02T04:30:58;11.70;99.90
10316;DHT22;5203;48.976;8.306;2022-11-02T04:33:25;11.80;99.90
10316;DHT22;5203;48.976;8.306;2022-11-02T04:36:04;11.80;99.90
10316;DHT22;5203;48.976;8.306;2022-11-02T04:38:31;11.80;99.90
10316;DHT22;5203;48.976;8.306;2022-11-02T04:41:20;11.90;99.90
10316;DHT22;5203;48.976;8.306;2022-11-02T04:44:04;11.90;99.90
10316;DHT22;5203;48.976;8.306;2022-11-02T04:46:33;12.00;99.90
10316;DHT22;5203;48.976;8.306;2022-11-02T04:48:59;12.10;99.90
10316;DHT22;5203;48.976;8.306;2022-11-02T04:51:26;12.10;99.90
10316;DHT22;5203;48.976;8.306;2022-11-02T04:53:52;12.10;99.90
10316;DHT22;5203;48.976;8.306;2022-11-02T04:56:19;12.20;99.90
10316;DHT22;5203;48.976;8.306;2022-11-02T04:58:53;12.10;99.90
10316;DHT22;5203;48.976;8.306;2022-11-02T05:01:20;12.20;99.90
10316;DHT22;5203;48.976;8.306;2022-11-02T05:03:46;12.10;99.90
10316;DHT22;5203;48.976;8.306;2022-11-02T05:06:16;12.20;99.90
10316;DHT22;5203;48.976;8.306;2022-11-02T05:08:42;12.10;99.90
10316;DHT22;5203;48.976;8.306;2022-11-02T05:11:09;12.20;99.90
10316;DHT22;5203;48.976;8.306;2022-11-02T05:13:36;12.00;99.90
10316;DHT22;5203;48.976;8.306;2022-11-02T05:16:02;12.10;99.90
10316;DHT22;5203;48.976;8.306;2022-11-02T05:18:28;12.00;99.90
10316;DHT22;5203;48.976;8.306;2022-11-02T05:20:58;12.00;99.90
10316;DHT22;5203;48.976;8.306;2022-11-02T05:23:25;12.10;99.90
10316;DHT22;5203;48.976;8.306;2022-11-02T05:25:52;12.20;99.90
10316;DHT22;5203;48.976;8.306;2022-11-02T05:28:18;12.20;99.90
10316;DHT22;5203;48.976;8.306;2022-11-02T05:30:44;12.20;99.90
10316;DHT22;5203;48.976;8.306;2022-11-02T05:33:10;12.20;99.90
10316;DHT22;5203;48.976;8.306;2022-11-02T05:35:35;12.20;99.90
10316;DHT22;5203;48.976;8.306;2022-11-02T05:38:01;12.10;99.90
10316;DHT22;5203;48.976;8.306;2022-11-02T05:40:26;12.10;99.90
10316;DHT22;5203;48.976;8.306;2022-11-02T05:43:00;12.20;99.90
10316;DHT22;5203;48.976;8.306;2022-11-02T05:45:26;12.20;99.90
10316;DHT22;5203;48.976;8.306;2022-11-02T05:47:52;12.20;99.90
10316;DHT22;5203;48.976;8.306;2022-11-02T05:50:18;12.20;99.90
10316;DHT22;5203;48.976;8.306;2022-11-02T05:52:44;12.00;99.90
10316;DHT22;5203;48.976;8.306;2022-11-02T05:55:10;12.00;99.90
10316;DHT22;5203;48.976;8.306;2022-11-02T05:57:35;12.00;99.90
10316;DHT22;5203;48.976;8.306;2022-11-02T06:00:02;12.00;99.90
10316;DHT22;5203;48.976;8.306;2022-11-02T06:02:28;11.80;99.90
10316;DHT22;5203;48.976;8.306;2022-11-02T06:04:54;11.90;99.90
10316;DHT22;5203;48.976;8.306;2022-11-02T06:07:20;11.90;99.90
10316;DHT22;5203;48.976;8.306;2022-11-02T06:09:46;11.90;99.90
10316;DHT22;5203;48.976;8.306;2022-11-02T06:12:12;11.80;99.90
10316;DHT22;5203;48.976;8.306;2022-11-02T06:14:37;11.70;99.90
10316;DHT22;5203;48.976;8.306;2022-11-02T06:17:03;11.70;99.90
10316;DHT22;5203;48.976;8.306;2022-11-02T06:19:28;11.70;99.90
10316;DHT22;5203;48.976;8.306;2022-11-02T06:21:54;11.80;99.90
10316;DHT22;5203;48.976;8.306;2022-11-02T06:24:20;11.70;99.90
10316;DHT22;5203;48.976;8.306;2022-11-02T06:26:46;11.80;99.90
10316;DHT22;5203;48.976;8.306;2022-11-02T06:29:11;11.90;99.90
10316;DHT22;5203;48.976;8.306;2022-11-02T06:31:37;11.90;99.90
10316;DHT22;5203;48.976;8.306;2022-11-02T06:34:03;11.90;99.90
10316;DHT22;5203;48.976;8.306;2022-11-02T06:36:28;11.80;99.90
10316;DHT22;5203;48.976;8.306;2022-11-02T06:38:54;11.70;99.90
10316;DHT22;5203;48.976;8.306;2022-11-02T06:41:19;11.70;99.90
10316;DHT22;5203;48.976;8.306;2022-11-02T06:43:45;11.80;99.90
10316;DHT22;5203;48.976;8.306;2022-11-02T06:46:11;11.70;99.90
10316;DHT22;5203;48.976;8.306;2022-11-02T06:48:37;11.70;99.90
10316;DHT22;5203;48.976;8.306;2022-11-02T06:51:03;11.60;99.90
10316;DHT22;5203;48.976;8.306;2022-11-02T06:53:29;11.50;99.90
10316;DHT22;5203;48.976;8.306;2022-11-02T06:55:56;11.50;99.90
10316;DHT22;5203;48.976;8.306;2022-11-02T06:58:22;11.60;99.90
10316;DHT22;5203;48.976;8.306;2022-11-02T07:00:49;11.60;99.90
10316;DHT22;5203;48.976;8.306;2022-11-02T07:03:15;11.80;99.90
10316;DHT22;5203;48.976;8.306;2022-11-02T07:05:41;11.70;99.90
10316;DHT22;5203;48.976;8.306;2022-11-02T07:08:07;11.60;99.90
10316;DHT22;5203;48.976;8.306;2022-11-02T07:10:33;11.70;99.90
10316;DHT22;5203;48.976;8.306;2022-11-02T07:13:00;11.70;99.90
10316;DHT22;5203;48.976;8.306;2022-11-02T07:15:25;11.70;99.90
10316;DHT22;5203;48.976;8.306;2022-11-02T07:17:52;11.80;99.90
10316;DHT22;5203;48.976;8.306;2022-11-02T07:20:18;11.80;99.90
10316;DHT22;5203;48.976;8.306;2022-11-02T07:22:52;11.90;99.90
10316;DHT22;5203;48.976;8.306;2022-11-02T07:25:18;11.90;99.90
10316;DHT22;5203;48.976;8.306;2022-11-02T07:27:43;12.00;99.90
10316;DHT22;5203;48.976;8.306;2022-11-02T07:30:09;12.00;99.90
10316;DHT22;5203;48.976;8.306;2022-11-02T07:32:39;12.00;99.90
10316;DHT22;5203;48.976;8.306;2022-11-02T07:35:06;12.10;99.90
10316;DHT22;5203;48.976;8.306;2022-11-02T07:37:32;12.10;99.90
10316;DHT22;5203;48.976;8.306;2022-11-02T07:39:58;12.20;99.90
10316;DHT22;5203;48.976;8.306;2022-11-02T07:42:23;12.10;99.90
10316;DHT22;5203;48.976;8.306;2022-11-02T07:44:49;12.00;99.90
10316;DHT22;5203;48.976;8.306;2022-11-02T07:47:14;12.00;99.90
10316;DHT22;5203;48.976;8.306;2022-11-02T07:49:40;12.10;99.90
10316;DHT22;5203;48.976;8.306;2022-11-02T07:52:06;12.00;99.90
10316;DHT22;5203;48.976;8.306;2022-11-02T07:54:31;12.20;99.90
10316;DHT22;5203;48.976;8.306;2022-11-02T07:56:57;12.00;99.90
10316;DHT22;5203;48.976;8.306;2022-11-02T07:59:23;12.10;99.90
10316;DHT22;5203;48.976;8.306;2022-11-02T08:01:49;12.20;99.90
10316;DHT22;5203;48.976;8.306;2022-11-02T08:04:14;12.10;99.90
10316;DHT22;5203;48.976;8.306;2022-11-02T08:06:40;12.30;99.90
10316;DHT22;5203;48.976;8.306;2022-11-02T08:09:05;12.30;99.90
10316;DHT22;5203;48.976;8.306;2022-11-02T08:11:31;12.20;99.90
10316;DHT22;5203;48.976;8.306;2022-11-02T08:13:57;12.30;99.90
10316;DHT22;5203;48.976;8.306;2022-11-02T08:16:23;12.30;99.90
10316;DHT22;5203;48.976;8.306;2022-11-02T08:18:48;12.30;99.90
10316;DHT22;5203;48.976;8.306;2022-11-02T08:21:14;12.40;99.90
10316;DHT22;5203;48.976;8.306;2022-11-02T08:23:40;12.50;99.90
10316;DHT22;5203;48.976;8.306;2022-11-02T08:26:05;12.40;99.90
10316;DHT22;5203;48.976;8.306;2022-11-02T08:28:31;12.40;99.90
10316;DHT22;5203;48.976;8.306;2022-11-02T08:31:00;12.50;99.90
10316;DHT22;5203;48.976;8.306;2022-11-02T08:33:25;12.50;99.90
10316;DHT22;5203;48.976;8.306;2022-11-02T08:35:51;12.60;99.90
10316;DHT22;5203;48.976;8.306;2022-11-02T08:38:18;12.70;99.90
10316;DHT22;5203;48.976;8.306;2022-11-02T08:40:47;12.70;99.90
10316;DHT22;5203;48.976;8.306;2022-11-02T08:43:13;12.90;99.90
10316;DHT22;5203;48.976;8.306;2022-11-02T08:45:41;12.90;99.90
10316;DHT22;5203;48.976;8.306;2022-11-02T08:48:08;12.90;99.90
10316;DHT22;5203;48.976;8.306;2022-11-02T08:50:34;12.90;99.90
10316;DHT22;5203;48.976;8.306;2022-11-02T08:53:00;13.10;99.90
10316;DHT22;5203;48.976;8.306;2022-11-02T08:55:26;13.10;99.90
10316;DHT22;5203;48.976;8.306;2022-11-02T08:57:57;13.00;99.90
10316;DHT22;5203;48.976;8.306;2022-11-02T09:00:24;13.20;99.90
10316;DHT22;5203;48.976;8.306;2022-11-02T09:03:04;13.20;99.90
10316;DHT22;5203;48.976;8.306;2022-11-02T09:05:35;13.20;99.90
10316;DHT22;5203;48.976;8.306;2022-11-02T09:08:04;13.20;99.90
10316;DHT22;5203;48.976;8.306;2022-11-02T09:10:32;13.30;99.90
10316;DHT22;5203;48.976;8.306;2022-11-02T09:12:59;13.20;99.90
10316;DHT22;5203;48.976;8.306;2022-11-02T09:15:25;13.20;99.90
10316;DHT22;5203;48.976;8.306;2022-11-02T09:17:51;13.40;99.90
10316;DHT22;5203;48.976;8.306;2022-11-02T09:20:17;13.40;99.90
10316;DHT22;5203;48.976;8.306;2022-11-02T09:22:43;13.50;99.90
10316;DHT22;5203;48.976;8.306;2022-11-02T09:25:09;13.40;99.90
10316;DHT22;5203;48.976;8.306;2022-11-02T09:27:35;13.70;99.90
10316;DHT22;5203;48.976;8.306;2022-11-02T09:30:01;13.60;99.90
10316;DHT22;5203;48.976;8.306;2022-11-02T09:32:29;13.80;99.90
10316;DHT22;5203;48.976;8.306;2022-11-02T09:35:05;13.90;98.10
10316;DHT22;5203;48.976;8.306;2022-11-02T09:37:31;13.90;98.20
10316;DHT22;5203;48.976;8.306;2022-11-02T09:39:56;13.90;98.10
10316;DHT22;5203;48.976;8.306;2022-11-02T09:42:38;14.00;97.80
10316;DHT22;5203;48.976;8.306;2022-11-02T09:45:11;14.00;97.80
10316;DHT22;5203;48.976;8.306;2022-11-02T09:47:49;13.80;99.50
10316;DHT22;5203;48.976;8.306;2022-11-02T09:50:22;13.90;98.20
10316;DHT22;5203;48.976;8.306;2022-11-02T09:52:56;13.90;96.50
10316;DHT22;5203;48.976;8.306;2022-11-02T09:55:31;13.70;97.60
10316;DHT22;5203;48.976;8.306;2022-11-02T09:58:06;13.80;98.80
10316;DHT22;5203;48.976;8.306;2022-11-02T10:00:37;14.00;97.20
10316;DHT22;5203;48.976;8.306;2022-11-02T10:06:12;14.10;96.20
10316;DHT22;5203;48.976;8.306;2022-11-02T10:09:15;14.30;96.20
10316;DHT22;5203;48.976;8.306;2022-11-02T10:14:23;13.90;97.50
10316;DHT22;5203;48.976;8.306;2022-11-02T10:16:58;14.10;96.50
10316;DHT22;5203;48.976;8.306;2022-11-02T10:19:28;14.10;91.10
10316;DHT22;5203;48.976;8.306;2022-11-02T10:21:56;14.00;88.60
10316;DHT22;5203;48.976;8.306;2022-11-02T10:26:55;13.90;89.90
10316;DHT22;5203;48.976;8.306;2022-11-02T10:29:47;14.10;88.70
10316;DHT22;5203;48.976;8.306;2022-11-02T10:32:16;14.10;90.00
10316;DHT22;5203;48.976;8.306;2022-11-02T10:34:43;14.40;86.50
10316;DHT22;5203;48.976;8.306;2022-11-02T10:43:01;14.40;88.10
10316;DHT22;5203;48.976;8.306;2022-11-02T10:56:43;14.60;85.40
10316;DHT22;5203;48.976;8.306;2022-11-02T11:04:27;15.20;84.10
10316;DHT22;5203;48.976;8.306;2022-11-02T11:06:54;15.80;80.10
10316;DHT22;5203;48.976;8.306;2022-11-02T11:09:29;15.80;80.90
10316;DHT22;5203;48.976;8.306;2022-11-02T11:11:58;15.90;80.40
10316;DHT22;5203;48.976;8.306;2022-11-02T11:14:29;16.00;75.30
10316;DHT22;5203;48.976;8.306;2022-11-02T11:16:57;16.00;73.90
10316;DHT22;5203;48.976;8.306;2022-11-02T11:19:39;16.00;74.20
10316;DHT22;5203;48.976;8.306;2022-11-02T11:24:46;15.50;74.50
10316;DHT22;5203;48.976;8.306;2022-11-02T11:29:40;15.80;72.20
10316;DHT22;5203;48.976;8.306;2022-11-02T11:32:24;16.20;72.80
10316;DHT22;5203;48.976;8.306;2022-11-02T11:35:16;16.60;67.50
10316;DHT22;5203;48.976;8.306;2022-11-02T11:37:50;16.70;67.20
10316;DHT22;5203;48.976;8.306;2022-11-02T11:40:19;17.00;66.90
10316;DHT22;5203;48.976;8.306;2022-11-02T11:42:47;17.10;65.00
10316;DHT22;5203;48.976;8.306;2022-11-02T11:45:22;17.10;65.00
10316;DHT22;5203;48.976;8.306;2022-11-02T11:50:48;17.30;63.20
10316;DHT22;5203;48.976;8.306;2022-11-02T11:53:21;17.40;62.60
10316;DHT22;5203;48.976;8.306;2022-11-02T11:55:54;17.60;60.90
10316;DHT22;5203;48.976;8.306;2022-11-02T11:58:32;17.60;61.10
10316;DHT22;5203;48.976;8.306;2022-11-02T12:03:55;17.60;62.00
10316;DHT22;5203;48.976;8.306;2022-11-02T12:08:56;17.80;57.90
10316;DHT22;5203;48.976;8.306;2022-11-02T12:22:15;18.20;53.80
10316;DHT22;5203;48.976;8.306;2022-11-02T12:30:22;18.60;54.10
10316;DHT22;5203;48.976;8.306;2022-11-02T12:49:39;18.80;53.60
10316;DHT22;5203;48.976;8.306;2022-11-02T12:54:46;19.70;51.60
10316;DHT22;5203;48.976;8.306;2022-11-02T12:57:15;19.40;50.20
10316;DHT22;5203;48.976;8.306;2022-11-02T12:59:43;19.20;53.40
10316;DHT22;5203;48.976;8.306;2022-11-02T13:05:09;19.30;49.60
10316;DHT22;5203;48.976;8.306;2022-11-02T13:07:41;19.20;50.60
10316;DHT22;5203;48.976;8.306;2022-11-02T13:10:25;19.20;50.90
10316;DHT22;5203;48.976;8.306;2022-11-02T13:12:57;18.90;51.10
10316;DHT22;5203;48.976;8.306;2022-11-02T13:15:25;18.90;53.20
10316;DHT22;5203;48.976;8.306;2022-11-02T13:17:58;18.90;53.10
10316;DHT22;5203;48.976;8.306;2022-11-02T13:20:48;19.30;51.80
10316;DHT22;5203;48.976;8.306;2022-11-02T13:25:53;19.30;50.00
10316;DHT22;5203;48.976;8.306;2022-11-02T13:28:43;19.60;49.00
10316;DHT22;5203;48.976;8.306;2022-11-02T13:31:40;19.60;47.00
10316;DHT22;5203;48.976;8.306;2022-11-02T13:34:13;20.00;46.60
10316;DHT22;5203;48.976;8.306;2022-11-02T13:36:40;20.30;47.20
10316;DHT22;5203;48.976;8.306;2022-11-02T13:39:24;19.80;47.50
10316;DHT22;5203;48.976;8.306;2022-11-02T13:49:52;20.00;46.20
10316;DHT22;5203;48.976;8.306;2022-11-02T13:52:35;19.90;46.40
10316;DHT22;5203;48.976;8.306;2022-11-02T13:55:04;19.80;47.10
10316;DHT22;5203;48.976;8.306;2022-11-02T13:57:43;19.80;48.00
10316;DHT22;5203;48.976;8.306;2022-11-02T14:00:37;19.60;49.40
10316;DHT22;5203;48.976;8.306;2022-11-02T14:03:26;19.40;49.50
10316;DHT22;5203;48.976;8.306;2022-11-02T14:05:56;19.40;50.20
10316;DHT22;5203;48.976;8.306;2022-11-02T14:48:49;19.70;50.50
10316;DHT22;5203;48.976;8.306;2022-11-02T14:51:38;19.10;51.40
10316;DHT22;5203;48.976;8.306;2022-11-02T14:54:15;19.20;52.20
10316;DHT22;5203;48.976;8.306;2022-11-02T14:56:58;19.20;51.70
10316;DHT22;5203;48.976;8.306;2022-11-02T14:59:38;19.10;53.60
10316;DHT22;5203;48.976;8.306;2022-11-02T15:02:06;18.90;53.20
10316;DHT22;5203;48.976;8.306;2022-11-02T15:04:33;18.60;54.90
10316;DHT22;5203;48.976;8.306;2022-11-02T15:07:02;18.50;55.10
10316;DHT22;5203;48.976;8.306;2022-11-02T15:15:14;18.80;54.50
10316;DHT22;5203;48.976;8.306;2022-11-02T15:22:44;18.10;57.40
10316;DHT22;5203;48.976;8.306;2022-11-02T15:25:17;18.10;58.10
10316;DHT22;5203;48.976;8.306;2022-11-02T15:27:44;18.10;58.50
10316;DHT22;5203;48.976;8.306;2022-11-02T15:30:21;18.20;59.10
10316;DHT22;5203;48.976;8.306;2022-11-02T15:33:03;18.30;58.70
10316;DHT22;5203;48.976;8.306;2022-11-02T15:35:32;18.30;59.50
10316;DHT22;5203;48.976;8.306;2022-11-02T15:38:00;18.20;59.50
10316;DHT22;5203;48.976;8.306;2022-11-02T15:48:40;18.00;60.70
10316;DHT22;5203;48.976;8.306;2022-11-02T15:53:54;17.70;64.00
10316;DHT22;5203;48.976;8.306;2022-11-02T15:56:58;17.70;63.80
10316;DHT22;5203;48.976;8.306;2022-11-02T15:59:47;17.60;64.40
10316;DHT22;5203;48.976;8.306;2022-11-02T16:02:31;17.50;66.60
10316;DHT22;5203;48.976;8.306;2022-11-02T16:04:59;17.40;67.30
10316;DHT22;5203;48.976;8.306;2022-11-02T16:07:26;17.20;67.90
10316;DHT22;5203;48.976;8.306;2022-11-02T16:09:53;17.00;69.50
10316;DHT22;5203;48.976;8.306;2022-11-02T16:12:21;16.80;70.10
10316;DHT22;5203;48.976;8.306;2022-11-02T16:14:57;16.80;70.40
10316;DHT22;5203;48.976;8.306;2022-11-02T16:17:28;16.70;70.60
10316;DHT22;5203;48.976;8.306;2022-11-02T16:20:17;16.70;71.60
10316;DHT22;5203;48.976;8.306;2022-11-02T16:22:47;16.60;72.50
10316;DHT22;5203;48.976;8.306;2022-11-02T16:25:38;16.50;73.30
10316;DHT22;5203;48.976;8.306;2022-11-02T16:28:23;16.40;73.10
10316;DHT22;5203;48.976;8.306;2022-11-02T16:33:31;16.20;74.50
10316;DHT22;5203;48.976;8.306;2022-11-02T16:35:59;16.10;75.50
10316;DHT22;5203;48.976;8.306;2022-11-02T16:38:25;16.00;75.20
10316;DHT22;5203;48.976;8.306;2022-11-02T16:40:51;15.90;75.70
10316;DHT22;5203;48.976;8.306;2022-11-02T16:43:18;15.90;76.10
10316;DHT22;5203;48.976;8.306;2022-11-02T16:45:47;15.90;76.20
10316;DHT22;5203;48.976;8.306;2022-11-02T16:48:25;15.80;76.60
10316;DHT22;5203;48.976;8.306;2022-11-02T16:53:37;15.80;76.30
10316;DHT22;5203;48.976;8.306;2022-11-02T16:56:13;15.60;76.60
10316;DHT22;5203;48.976;8.306;2022-11-02T16:58:47;15.50;78.10
10316;DHT22;5203;48.976;8.306;2022-11-02T17:01:21;15.50;79.00
10316;DHT22;5203;48.976;8.306;2022-11-02T17:03:47;15.50;79.50
10316;DHT22;5203;48.976;8.306;2022-11-02T17:06:15;15.50;79.60
10316;DHT22;5203;48.976;8.306;2022-11-02T17:08:43;15.40;80.00
10316;DHT22;5203;48.976;8.306;2022-11-02T17:11:14;15.30;80.30
10316;DHT22;5203;48.976;8.306;2022-11-02T17:13:52;15.30;80.20
10316;DHT22;5203;48.976;8.306;2022-11-02T17:16:19;15.20;81.20
10316;DHT22;5203;48.976;8.306;2022-11-02T17:18:45;15.20;80.80
10316;DHT22;5203;48.976;8.306;2022-11-02T17:23:39;15.10;80.10
10316;DHT22;5203;48.976;8.306;2022-11-02T17:28:48;15.00;81.20
10316;DHT22;5203;48.976;8.306;2022-11-02T17:31:36;15.00;81.30
10316;DHT22;5203;48.976;8.306;2022-11-02T17:34:23;15.00;80.90
10316;DHT22;5203;48.976;8.306;2022-11-02T17:36:49;15.00;81.10
10316;DHT22;5203;48.976;8.306;2022-11-02T17:39:17;14.90;81.30
10316;DHT22;5203;48.976;8.306;2022-11-02T17:41:45;15.00;81.30
10316;DHT22;5203;48.976;8.306;2022-11-02T17:44:30;15.00;80.70
10316;DHT22;5203;48.976;8.306;2022-11-02T17:46:56;14.90;81.20
10316;DHT22;5203;48.976;8.306;2022-11-02T17:49:21;14.90;80.70
10316;DHT22;5203;48.976;8.306;2022-11-02T17:51:47;14.80;81.10
10316;DHT22;5203;48.976;8.306;2022-11-02T17:54:13;14.80;81.00
10316;DHT22;5203;48.976;8.306;2022-11-02T17:56:39;14.80;80.90
10316;DHT22;5203;48.976;8.306;2022-11-02T17:59:05;14.60;81.70
10316;DHT22;5203;48.976;8.306;2022-11-02T18:01:31;14.60;81.80
10316;DHT22;5203;48.976;8.306;2022-11-02T18:03:56;14.60;82.00
10316;DHT22;5203;48.976;8.306;2022-11-02T18:06:23;14.60;82.00
10316;DHT22;5203;48.976;8.306;2022-11-02T18:08:49;14.60;82.30
10316;DHT22;5203;48.976;8.306;2022-11-02T18:11:34;14.60;82.50
10316;DHT22;5203;48.976;8.306;2022-11-02T18:13:59;14.50;82.50
10316;DHT22;5203;48.976;8.306;2022-11-02T18:16:25;14.50;82.70
10316;DHT22;5203;48.976;8.306;2022-11-02T18:18:51;14.40;81.80
10316;DHT22;5203;48.976;8.306;2022-11-02T18:21:17;14.20;82.30
10316;DHT22;5203;48.976;8.306;2022-11-02T18:23:43;14.20;82.60
10316;DHT22;5203;48.976;8.306;2022-11-02T18:26:10;14.10;83.50
10316;DHT22;5203;48.976;8.306;2022-11-02T18:28:36;14.00;83.70
10316;DHT22;5203;48.976;8.306;2022-11-02T18:31:04;14.00;83.60
10316;DHT22;5203;48.976;8.306;2022-11-02T18:33:30;14.00;83.60
10316;DHT22;5203;48.976;8.306;2022-11-02T18:36:06;14.00;83.80
10316;DHT22;5203;48.976;8.306;2022-11-02T18:38:33;13.80;82.30
10316;DHT22;5203;48.976;8.306;2022-11-02T18:41:03;13.50;84.80
10316;DHT22;5203;48.976;8.306;2022-11-02T18:43:49;13.50;86.50
10316;DHT22;5203;48.976;8.306;2022-11-02T18:46:14;13.50;87.80
10316;DHT22;5203;48.976;8.306;2022-11-02T18:48:40;13.50;86.50
10316;DHT22;5203;48.976;8.306;2022-11-02T18:51:05;13.50;86.70
10316;DHT22;5203;48.976;8.306;2022-11-02T18:53:31;13.50;86.30
10316;DHT22;5203;48.976;8.306;2022-11-02T18:56:01;13.40;86.20
10316;DHT22;5203;48.976;8.306;2022-11-02T18:58:27;13.40;86.70
10316;DHT22;5203;48.976;8.306;2022-11-02T19:00:53;13.40;86.70
10316;DHT22;5203;48.976;8.306;2022-11-02T19:03:18;13.40;86.20
10316;DHT22;5203;48.976;8.306;2022-11-02T19:05:44;13.30;87.40
10316;DHT22;5203;48.976;8.306;2022-11-02T19:08:28;13.30;87.00
10316;DHT22;5203;48.976;8.306;2022-11-02T19:11:12;13.20;87.20
10316;DHT22;5203;48.976;8.306;2022-11-02T19:13:38;13.30;86.50
10316;DHT22;5203;48.976;8.306;2022-11-02T19:16:04;13.20;87.30
10316;DHT22;5203;48.976;8.306;2022-11-02T19:18:29;13.30;87.10
10316;DHT22;5203;48.976;8.306;2022-11-02T19:20:55;13.20;87.40